sensor_id;sensor_type;location;lat;lon;timestamp;P1;durP1;ratioP1;P2;durP2;ratioP2
22644;SDS011;11489;50.834;6.752;2022-10-16T00:00:43;1.20;;;0.98;;
22644;SDS011;11489;50.834;6.752;2022-10-16T00:03:09;1.30;;;1.10;;
22644;SDS011;11489;50.834;6.752;2022-10-16T00:05:39;2.28;;;1.20;;
22644;SDS011;11489;50.834;6.752;2022-10-16T00:08:07;2.92;;;1.10;;
22644;SDS011;11489;50.834;6.752;2022-10-16T00:10:34;1.60;;;1.08;;
22644;SDS011;11489;50.834;6.752;2022-10-16T00:13:00;1.63;;;1.10;;
22644;SDS011;11489;50.834;6.752;2022-10-16T00:15:25;1.75;;;1.13;;
22644;SDS011;11489;50.834;6.752;2022-10-16T00:17:51;1.10;;;1.00;;
22644;SDS011;11489;50.834;6.752;2022-10-16T00:20:17;1.90;;;0.90;;
22644;SDS011;11489;50.834;6.752;2022-10-16T00:22:43;2.50;;;1.00;;
22644;SDS011;11489;50.834;6.752;2022-10-16T00:25:08;1.63;;;1.02;;
22644;SDS011;11489;50.834;6.752;2022-10-16T00:27:34;2.80;;;0.95;;
22644;SDS011;11489;50.834;6.752;2022-10-16T00:30:00;1.83;;;0.88;;
22644;SDS011;11489;50.834;6.752;2022-10-16T00:32:26;1.50;;;1.20;;
22644;SDS011;11489;50.834;6.752;2022-10-16T00:34:51;2.85;;;1.20;;
22644;SDS011;11489;50.834;6.752;2022-10-16T00:37:19;1.75;;;1.17;;
22644;SDS011;11489;50.834;6.752;2022-10-16T00:39:46;1.48;;;1.08;;
22644;SDS011;11489;50.834;6.752;2022-10-16T00:42:15;1.25;;;1.08;;
22644;SDS011;11489;50.834;6.752;2022-10-16T00:47:11;0.95;;;0.85;;
22644;SDS011;11489;50.834;6.752;2022-10-16T00:49:42;2.47;;;1.00;;
22644;SDS011;11489;50.834;6.752;2022-10-16T00:52:08;2.20;;;1.13;;
22644;SDS011;11489;50.834;6.752;2022-10-16T00:54:35;0.90;;;0.90;;
22644;SDS011;11489;50.834;6.752;2022-10-16T00:57:03;1.17;;;1.00;;
22644;SDS011;11489;50.834;6.752;2022-10-16T00:59:32;1.05;;;0.93;;
22644;SDS011;11489;50.834;6.752;2022-10-16T01:02:00;2.17;;;1.30;;
22644;SDS011;11489;50.834;6.752;2022-10-16T01:04:29;1.75;;;0.93;;
22644;SDS011;11489;50.834;6.752;2022-10-16T01:13:07;2.13;;;1.10;;
22644;SDS011;11489;50.834;6.752;2022-10-16T01:18:33;2.33;;;1.10;;
22644;SDS011;11489;50.834;6.752;2022-10-16T01:21:36;3.83;;;1.38;;
22644;SDS011;11489;50.834;6.752;2022-10-16T01:24:15;1.15;;;1.05;;
22644;SDS011;11489;50.834;6.752;2022-10-16T01:27:07;4.20;;;1.10;;
22644;SDS011;11489;50.834;6.752;2022-10-16T01:29:52;1.95;;;1.08;;
22644;SDS011;11489;50.834;6.752;2022-10-16T01:32:35;1.45;;;1.20;;
22644;SDS011;11489;50.834;6.752;2022-10-16T01:35:05;1.55;;;1.25;;
22644;SDS011;11489;50.834;6.752;2022-10-16T01:37:52;1.83;;;1.23;;
22644;SDS011;11489;50.834;6.752;2022-10-16T01:40:32;1.63;;;1.17;;
22644;SDS011;11489;50.834;6.752;2022-10-16T01:43:20;1.75;;;1.20;;
22644;SDS011;11489;50.834;6.752;2022-10-16T01:45:52;4.72;;;1.30;;
22644;SDS011;11489;50.834;6.752;2022-10-16T01:48:19;1.55;;;1.33;;
22644;SDS011;11489;50.834;6.752;2022-10-16T01:50:50;2.33;;;1.30;;
22644;SDS011;11489;50.834;6.752;2022-10-16T01:53:22;1.30;;;1.15;;
22644;SDS011;11489;50.834;6.752;2022-10-16T01:55:49;1.65;;;1.23;;
22644;SDS011;11489;50.834;6.752;2022-10-16T01:58:19;1.70;;;1.33;;
22644;SDS011;11489;50.834;6.752;2022-10-16T02:00:49;1.30;;;1.20;;
22644;SDS011;11489;50.834;6.752;2022-10-16T02:03:17;1.75;;;1.20;;
22644;SDS011;11489;50.834;6.752;2022-10-16T02:05:45;1.52;;;1.40;;
22644;SDS011;11489;50.834;6.752;2022-10-16T02:08:14;1.90;;;1.30;;
22644;SDS011;11489;50.834;6.752;2022-10-16T02:10:40;1.50;;;1.40;;
22644;SDS011;11489;50.834;6.752;2022-10-16T02:13:07;1.42;;;1.30;;
22644;SDS011;11489;50.834;6.752;2022-10-16T02:15:35;2.20;;;1.30;;
22644;SDS011;11489;50.834;6.752;2022-10-16T02:18:02;1.33;;;1.20;;
22644;SDS011;11489;50.834;6.752;2022-10-16T02:20:32;2.65;;;1.30;;
22644;SDS011;11489;50.834;6.752;2022-10-16T02:23:05;2.25;;;1.20;;
22644;SDS011;11489;50.834;6.752;2022-10-16T02:25:37;2.20;;;1.00;;
22644;SDS011;11489;50.834;6.752;2022-10-16T02:28:17;1.20;;;0.98;;
22644;SDS011;11489;50.834;6.752;2022-10-16T02:31:00;8.05;;;1.23;;
22644;SDS011;11489;50.834;6.752;2022-10-16T02:33:28;3.85;;;0.90;;
22644;SDS011;11489;50.834;6.752;2022-10-16T02:35:56;1.27;;;1.00;;
22644;SDS011;11489;50.834;6.752;2022-10-16T02:38:23;1.02;;;0.90;;
22644;SDS011;11489;50.834;6.752;2022-10-16T02:40:50;1.25;;;1.10;;
22644;SDS011;11489;50.834;6.752;2022-10-16T02:43:16;1.05;;;0.88;;
22644;SDS011;11489;50.834;6.752;2022-10-16T02:45:42;0.73;;;0.73;;
22644;SDS011;11489;50.834;6.752;2022-10-16T02:48:08;0.95;;;0.82;;
22644;SDS011;11489;50.834;6.752;2022-10-16T02:50:34;0.70;;;0.70;;
22644;SDS011;11489;50.834;6.752;2022-10-16T02:52:59;1.10;;;1.00;;
22644;SDS011;11489;50.834;6.752;2022-10-16T02:55:25;1.70;;;0.85;;
22644;SDS011;11489;50.834;6.752;2022-10-16T02:57:52;1.77;;;0.90;;
22644;SDS011;11489;50.834;6.752;2022-10-16T03:00:19;1.20;;;0.90;;
22644;SDS011;11489;50.834;6.752;2022-10-16T03:02:45;0.82;;;0.82;;
22644;SDS011;11489;50.834;6.752;2022-10-16T03:05:12;3.30;;;0.88;;
22644;SDS011;11489;50.834;6.752;2022-10-16T03:07:38;0.98;;;0.68;;
22644;SDS011;11489;50.834;6.752;2022-10-16T03:10:04;2.30;;;0.80;;
22644;SDS011;11489;50.834;6.752;2022-10-16T03:12:30;3.63;;;1.20;;
22644;SDS011;11489;50.834;6.752;2022-10-16T03:14:56;0.80;;;0.68;;
22644;SDS011;11489;50.834;6.752;2022-10-16T03:17:22;0.85;;;0.80;;
22644;SDS011;11489;50.834;6.752;2022-10-16T03:19:48;0.65;;;0.65;;
22644;SDS011;11489;50.834;6.752;2022-10-16T03:22:14;0.77;;;0.65;;
22644;SDS011;11489;50.834;6.752;2022-10-16T03:24:39;0.73;;;0.73;;
22644;SDS011;11489;50.834;6.752;2022-10-16T03:27:05;0.93;;;0.77;;
22644;SDS011;11489;50.834;6.752;2022-10-16T03:29:31;2.47;;;0.80;;
22644;SDS011;11489;50.834;6.752;2022-10-16T03:31:58;2.05;;;0.80;;
22644;SDS011;11489;50.834;6.752;2022-10-16T03:34:24;0.68;;;0.68;;
22644;SDS011;11489;50.834;6.752;2022-10-16T03:36:50;1.20;;;0.80;;
22644;SDS011;11489;50.834;6.752;2022-10-16T03:39:16;1.00;;;0.90;;
22644;SDS011;11489;50.834;6.752;2022-10-16T03:41:42;1.40;;;1.00;;
22644;SDS011;11489;50.834;6.752;2022-10-16T03:44:08;0.60;;;0.60;;
22644;SDS011;11489;50.834;6.752;2022-10-16T03:46:33;0.63;;;0.63;;
22644;SDS011;11489;50.834;6.752;2022-10-16T03:48:59;1.00;;;0.63;;
22644;SDS011;11489;50.834;6.752;2022-10-16T03:51:25;0.80;;;0.80;;
22644;SDS011;11489;50.834;6.752;2022-10-16T03:53:50;0.80;;;0.70;;
22644;SDS011;11489;50.834;6.752;2022-10-16T03:56:16;1.52;;;0.82;;
22644;SDS011;11489;50.834;6.752;2022-10-16T03:58:42;2.58;;;0.70;;
22644;SDS011;11489;50.834;6.752;2022-10-16T04:01:07;2.10;;;0.70;;
22644;SDS011;11489;50.834;6.752;2022-10-16T04:03:33;1.95;;;0.70;;
22644;SDS011;11489;50.834;6.752;2022-10-16T04:05:58;0.80;;;0.80;;
22644;SDS011;11489;50.834;6.752;2022-10-16T04:08:24;3.45;;;0.60;;
22644;SDS011;11489;50.834;6.752;2022-10-16T04:10:50;0.93;;;0.75;;
22644;SDS011;11489;50.834;6.752;2022-10-16T04:13:16;1.33;;;0.70;;
22644;SDS011;11489;50.834;6.752;2022-10-16T04:15:42;0.68;;;0.63;;
22644;SDS011;11489;50.834;6.752;2022-10-16T04:18:07;0.90;;;0.73;;
22644;SDS011;11489;50.834;6.752;2022-10-16T04:20:33;0.90;;;0.73;;
22644;SDS011;11489;50.834;6.752;2022-10-16T04:22:59;3.00;;;0.88;;
22644;SDS011;11489;50.834;6.752;2022-10-16T04:25:31;0.88;;;0.73;;
22644;SDS011;11489;50.834;6.752;2022-10-16T04:27:57;0.88;;;0.77;;
22644;SDS011;11489;50.834;6.752;2022-10-16T04:30:22;0.95;;;0.70;;
22644;SDS011;11489;50.834;6.752;2022-10-16T04:32:49;1.15;;;0.70;;
22644;SDS011;11489;50.834;6.752;2022-10-16T04:35:15;0.77;;;0.70;;
22644;SDS011;11489;50.834;6.752;2022-10-16T04:37:45;2.58;;;0.80;;
22644;SDS011;11489;50.834;6.752;2022-10-16T04:40:10;1.10;;;0.70;;
22644;SDS011;11489;50.834;6.752;2022-10-16T04:42:37;1.30;;;0.73;;
22644;SDS011;11489;50.834;6.752;2022-10-16T04:45:03;0.80;;;0.80;;
22644;SDS011;11489;50.834;6.752;2022-10-16T04:47:30;1.90;;;0.80;;
22644;SDS011;11489;50.834;6.752;2022-10-16T04:49:55;1.20;;;1.10;;
22644;SDS011;11489;50.834;6.752;2022-10-16T04:52:22;1.20;;;1.10;;
22644;SDS011;11489;50.834;6.752;2022-10-16T04:54:49;1.10;;;1.00;;
22644;SDS011;11489;50.834;6.752;2022-10-16T04:57:16;1.20;;;1.00;;
22644;SDS011;11489;50.834;6.752;2022-10-16T04:59:41;2.72;;;0.93;;
22644;SDS011;11489;50.834;6.752;2022-10-16T05:02:07;1.50;;;0.80;;
22644;SDS011;11489;50.834;6.752;2022-10-16T05:04:33;1.90;;;0.90;;
22644;SDS011;11489;50.834;6.752;2022-10-16T05:06:58;2.95;;;0.98;;
22644;SDS011;11489;50.834;6.752;2022-10-16T05:09:24;1.60;;;0.90;;
22644;SDS011;11489;50.834;6.752;2022-10-16T05:11:50;0.90;;;0.80;;
22644;SDS011;11489;50.834;6.752;2022-10-16T05:14:15;1.08;;;0.98;;
22644;SDS011;11489;50.834;6.752;2022-10-16T05:16:41;2.75;;;1.00;;
22644;SDS011;11489;50.834;6.752;2022-10-16T05:19:07;2.00;;;0.90;;
22644;SDS011;11489;50.834;6.752;2022-10-16T05:21:32;1.70;;;0.80;;
22644;SDS011;11489;50.834;6.752;2022-10-16T05:23:58;1.63;;;1.00;;
22644;SDS011;11489;50.834;6.752;2022-10-16T05:26:24;0.88;;;0.85;;
22644;SDS011;11489;50.834;6.752;2022-10-16T05:28:49;1.10;;;1.00;;
22644;SDS011;11489;50.834;6.752;2022-10-16T05:31:15;1.30;;;0.85;;
22644;SDS011;11489;50.834;6.752;2022-10-16T05:33:41;3.45;;;0.98;;
22644;SDS011;11489;50.834;6.752;2022-10-16T05:36:09;1.15;;;1.00;;
22644;SDS011;11489;50.834;6.752;2022-10-16T05:38:35;2.58;;;0.88;;
22644;SDS011;11489;50.834;6.752;2022-10-16T05:41:02;1.75;;;0.88;;
22644;SDS011;11489;50.834;6.752;2022-10-16T05:43:29;1.88;;;1.00;;
22644;SDS011;11489;50.834;6.752;2022-10-16T05:48:26;2.10;;;1.10;;
22644;SDS011;11489;50.834;6.752;2022-10-16T05:51:05;1.73;;;1.40;;
22644;SDS011;11489;50.834;6.752;2022-10-16T05:53:33;2.95;;;1.30;;
22644;SDS011;11489;50.834;6.752;2022-10-16T05:56:00;1.50;;;1.40;;
22644;SDS011;11489;50.834;6.752;2022-10-16T05:58:33;1.30;;;1.20;;
22644;SDS011;11489;50.834;6.752;2022-10-16T06:03:27;1.50;;;1.40;;
22644;SDS011;11489;50.834;6.752;2022-10-16T06:05:53;1.90;;;1.50;;
22644;SDS011;11489;50.834;6.752;2022-10-16T06:08:19;8.60;;;1.63;;
22644;SDS011;11489;50.834;6.752;2022-10-16T06:10:46;3.58;;;1.70;;
22644;SDS011;11489;50.834;6.752;2022-10-16T06:13:13;2.55;;;1.58;;
22644;SDS011;11489;50.834;6.752;2022-10-16T06:15:39;2.55;;;1.90;;
22644;SDS011;11489;50.834;6.752;2022-10-16T06:18:07;6.63;;;2.03;;
22644;SDS011;11489;50.834;6.752;2022-10-16T06:20:33;3.45;;;1.80;;
22644;SDS011;11489;50.834;6.752;2022-10-16T06:22:59;1.88;;;1.77;;
22644;SDS011;11489;50.834;6.752;2022-10-16T06:25:25;2.17;;;1.77;;
22644;SDS011;11489;50.834;6.752;2022-10-16T06:27:51;3.80;;;1.70;;
22644;SDS011;11489;50.834;6.752;2022-10-16T06:30:16;1.90;;;1.70;;
22644;SDS011;11489;50.834;6.752;2022-10-16T06:32:42;2.25;;;1.50;;
22644;SDS011;11489;50.834;6.752;2022-10-16T06:35:08;3.40;;;2.15;;
22644;SDS011;11489;50.834;6.752;2022-10-16T06:37:33;3.35;;;1.77;;
22644;SDS011;11489;50.834;6.752;2022-10-16T06:39:59;2.30;;;1.77;;
22644;SDS011;11489;50.834;6.752;2022-10-16T06:42:25;1.85;;;1.70;;
22644;SDS011;11489;50.834;6.752;2022-10-16T06:44:51;2.45;;;1.45;;
22644;SDS011;11489;50.834;6.752;2022-10-16T06:47:16;1.70;;;1.40;;
22644;SDS011;11489;50.834;6.752;2022-10-16T06:49:42;2.00;;;1.65;;
22644;SDS011;11489;50.834;6.752;2022-10-16T06:52:08;2.72;;;1.75;;
22644;SDS011;11489;50.834;6.752;2022-10-16T06:54:33;1.73;;;1.42;;
22644;SDS011;11489;50.834;6.752;2022-10-16T06:56:59;3.42;;;1.48;;
22644;SDS011;11489;50.834;6.752;2022-10-16T06:59:26;1.63;;;1.52;;
22644;SDS011;11489;50.834;6.752;2022-10-16T07:01:52;2.95;;;2.28;;
22644;SDS011;11489;50.834;6.752;2022-10-16T07:04:18;1.77;;;1.52;;
22644;SDS011;11489;50.834;6.752;2022-10-16T07:06:43;2.50;;;1.55;;
22644;SDS011;11489;50.834;6.752;2022-10-16T07:09:09;1.67;;;1.40;;
22644;SDS011;11489;50.834;6.752;2022-10-16T07:11:36;1.50;;;1.35;;
22644;SDS011;11489;50.834;6.752;2022-10-16T07:14:03;1.58;;;1.30;;
22644;SDS011;11489;50.834;6.752;2022-10-16T07:16:30;2.28;;;1.30;;
22644;SDS011;11489;50.834;6.752;2022-10-16T07:18:58;1.38;;;1.27;;
22644;SDS011;11489;50.834;6.752;2022-10-16T07:21:29;2.47;;;1.48;;
22644;SDS011;11489;50.834;6.752;2022-10-16T07:24:02;2.25;;;1.35;;
22644;SDS011;11489;50.834;6.752;2022-10-16T07:26:30;1.83;;;1.27;;
22644;SDS011;11489;50.834;6.752;2022-10-16T07:28:59;2.55;;;1.50;;
22644;SDS011;11489;50.834;6.752;2022-10-16T07:31:26;1.83;;;1.40;;
22644;SDS011;11489;50.834;6.752;2022-10-16T07:33:52;1.55;;;1.40;;
22644;SDS011;11489;50.834;6.752;2022-10-16T07:36:18;1.50;;;1.40;;
22644;SDS011;11489;50.834;6.752;2022-10-16T07:38:45;1.75;;;1.50;;
22644;SDS011;11489;50.834;6.752;2022-10-16T07:41:15;1.48;;;1.38;;
22644;SDS011;11489;50.834;6.752;2022-10-16T07:43:50;1.52;;;1.42;;
22644;SDS011;11489;50.834;6.752;2022-10-16T07:46:17;1.75;;;1.33;;
22644;SDS011;11489;50.834;6.752;2022-10-16T07:48:43;2.22;;;1.48;;
22644;SDS011;11489;50.834;6.752;2022-10-16T07:51:12;2.13;;;1.50;;
22644;SDS011;11489;50.834;6.752;2022-10-16T07:53:48;1.65;;;1.30;;
22644;SDS011;11489;50.834;6.752;2022-10-16T07:56:14;1.80;;;1.30;;
22644;SDS011;11489;50.834;6.752;2022-10-16T07:58:41;2.30;;;1.33;;
22644;SDS011;11489;50.834;6.752;2022-10-16T08:01:07;2.63;;;1.40;;
22644;SDS011;11489;50.834;6.752;2022-10-16T08:03:35;1.40;;;1.27;;
22644;SDS011;11489;50.834;6.752;2022-10-16T08:06:01;1.30;;;1.20;;
22644;SDS011;11489;50.834;6.752;2022-10-16T08:08:28;1.48;;;1.27;;
22644;SDS011;11489;50.834;6.752;2022-10-16T08:10:54;1.60;;;1.50;;
22644;SDS011;11489;50.834;6.752;2022-10-16T08:13:20;1.30;;;1.20;;
22644;SDS011;11489;50.834;6.752;2022-10-16T08:15:46;6.53;;;1.35;;
22644;SDS011;11489;50.834;6.752;2022-10-16T08:18:12;4.72;;;1.00;;
22644;SDS011;11489;50.834;6.752;2022-10-16T08:20:39;2.35;;;0.90;;
22644;SDS011;11489;50.834;6.752;2022-10-16T08:23:05;1.23;;;0.90;;
22644;SDS011;11489;50.834;6.752;2022-10-16T08:25:34;1.13;;;0.60;;
22644;SDS011;11489;50.834;6.752;2022-10-16T08:28:03;1.27;;;0.68;;
22644;SDS011;11489;50.834;6.752;2022-10-16T08:30:30;0.73;;;0.63;;
22644;SDS011;11489;50.834;6.752;2022-10-16T08:32:56;1.25;;;0.80;;
22644;SDS011;11489;50.834;6.752;2022-10-16T08:35:23;1.15;;;0.82;;
22644;SDS011;11489;50.834;6.752;2022-10-16T08:37:49;0.63;;;0.60;;
22644;SDS011;11489;50.834;6.752;2022-10-16T08:48:17;0.85;;;0.65;;
22644;SDS011;11489;50.834;6.752;2022-10-16T08:50:55;1.30;;;0.70;;
22644;SDS011;11489;50.834;6.752;2022-10-16T08:53:33;1.13;;;0.68;;
22644;SDS011;11489;50.834;6.752;2022-10-16T08:56:09;1.20;;;0.70;;
22644;SDS011;11489;50.834;6.752;2022-10-16T08:58:35;0.93;;;0.70;;
22644;SDS011;11489;50.834;6.752;2022-10-16T09:01:02;1.45;;;0.73;;
22644;SDS011;11489;50.834;6.752;2022-10-16T09:09:15;2.35;;;0.60;;
22644;SDS011;11489;50.834;6.752;2022-10-16T09:11:50;1.20;;;0.70;;
22644;SDS011;11489;50.834;6.752;2022-10-16T09:17:18;1.17;;;0.55;;
22644;SDS011;11489;50.834;6.752;2022-10-16T09:19:53;1.30;;;0.60;;
22644;SDS011;11489;50.834;6.752;2022-10-16T09:22:28;0.90;;;0.57;;
22644;SDS011;11489;50.834;6.752;2022-10-16T09:24:59;2.35;;;0.60;;
22644;SDS011;11489;50.834;6.752;2022-10-16T09:27:26;0.73;;;0.55;;
22644;SDS011;11489;50.834;6.752;2022-10-16T09:29:52;0.75;;;0.63;;
22644;SDS011;11489;50.834;6.752;2022-10-16T09:32:19;1.63;;;0.82;;
22644;SDS011;11489;50.834;6.752;2022-10-16T09:34:48;0.90;;;0.60;;
22644;SDS011;11489;50.834;6.752;2022-10-16T09:37:18;0.55;;;0.45;;
22644;SDS011;11489;50.834;6.752;2022-10-16T09:39:49;2.58;;;0.50;;
22644;SDS011;11489;50.834;6.752;2022-10-16T09:42:18;0.82;;;0.60;;
22644;SDS011;11489;50.834;6.752;2022-10-16T09:44:51;0.80;;;0.40;;
22644;SDS011;11489;50.834;6.752;2022-10-16T09:47:23;1.55;;;0.47;;
22644;SDS011;11489;50.834;6.752;2022-10-16T09:49:58;0.43;;;0.30;;
22644;SDS011;11489;50.834;6.752;2022-10-16T09:52:27;1.45;;;0.40;;
22644;SDS011;11489;50.834;6.752;2022-10-16T09:54:55;1.90;;;0.30;;
22644;SDS011;11489;50.834;6.752;2022-10-16T09:57:22;0.90;;;0.40;;
22644;SDS011;11489;50.834;6.752;2022-10-16T09:59:49;1.77;;;0.50;;
22644;SDS011;11489;50.834;6.752;2022-10-16T10:02:17;0.57;;;0.40;;
22644;SDS011;11489;50.834;6.752;2022-10-16T10:04:52;0.70;;;0.30;;
22644;SDS011;11489;50.834;6.752;2022-10-16T10:07:25;0.68;;;0.40;;
22644;SDS011;11489;50.834;6.752;2022-10-16T10:09:53;0.75;;;0.38;;
22644;SDS011;11489;50.834;6.752;2022-10-16T10:12:23;0.75;;;0.35;;
22644;SDS011;11489;50.834;6.752;2022-10-16T10:14:51;1.10;;;0.40;;
22644;SDS011;11489;50.834;6.752;2022-10-16T10:17:27;0.77;;;0.30;;
22644;SDS011;11489;50.834;6.752;2022-10-16T10:19:54;3.33;;;0.47;;
22644;SDS011;11489;50.834;6.752;2022-10-16T10:24:54;0.60;;;0.30;;
22644;SDS011;11489;50.834;6.752;2022-10-16T10:33:49;2.72;;;0.38;;
22644;SDS011;11489;50.834;6.752;2022-10-16T10:36:27;0.90;;;0.45;;
22644;SDS011;11489;50.834;6.752;2022-10-16T10:38:58;0.70;;;0.25;;
22644;SDS011;11489;50.834;6.752;2022-10-16T11:06:00;0.57;;;0.30;;
22644;SDS011;11489;50.834;6.752;2022-10-16T11:08:31;1.17;;;0.40;;
22644;SDS011;11489;50.834;6.752;2022-10-16T11:16:39;0.63;;;0.20;;
22644;SDS011;11489;50.834;6.752;2022-10-16T11:19:23;0.85;;;0.30;;
22644;SDS011;11489;50.834;6.752;2022-10-16T11:22:09;1.27;;;0.30;;
22644;SDS011;11489;50.834;6.752;2022-10-16T11:24:45;0.20;;;0.20;;
22644;SDS011;11489;50.834;6.752;2022-10-16T11:27:26;0.50;;;0.32;;
22644;SDS011;11489;50.834;6.752;2022-10-16T11:30:13;0.40;;;0.30;;
22644;SDS011;11489;50.834;6.752;2022-10-16T11:35:42;1.30;;;0.35;;
22644;SDS011;11489;50.834;6.752;2022-10-16T11:40:43;0.95;;;0.30;;
22644;SDS011;11489;50.834;6.752;2022-10-16T11:43:17;0.75;;;0.30;;
22644;SDS011;11489;50.834;6.752;2022-10-16T11:45:51;0.93;;;0.40;;
22644;SDS011;11489;50.834;6.752;2022-10-16T11:48:23;0.63;;;0.30;;
22644;SDS011;11489;50.834;6.752;2022-10-16T11:50:51;0.73;;;0.35;;
22644;SDS011;11489;50.834;6.752;2022-10-16T11:56:11;0.98;;;0.40;;
22644;SDS011;11489;50.834;6.752;2022-10-16T12:02:09;0.30;;;0.20;;
22644;SDS011;11489;50.834;6.752;2022-10-16T12:07:41;0.93;;;0.30;;
22644;SDS011;11489;50.834;6.752;2022-10-16T12:10:34;0.82;;;0.30;;
22644;SDS011;11489;50.834;6.752;2022-10-16T12:13:04;1.27;;;0.52;;
22644;SDS011;11489;50.834;6.752;2022-10-16T12:15:31;0.75;;;0.30;;
22644;SDS011;11489;50.834;6.752;2022-10-16T12:17:58;0.63;;;0.30;;
22644;SDS011;11489;50.834;6.752;2022-10-16T12:20:28;1.00;;;0.40;;
22644;SDS011;11489;50.834;6.752;2022-10-16T12:22:57;0.50;;;0.32;;
22644;SDS011;11489;50.834;6.752;2022-10-16T12:25:32;1.48;;;0.38;;
22644;SDS011;11489;50.834;6.752;2022-10-16T12:28:01;0.38;;;0.38;;
22644;SDS011;11489;50.834;6.752;2022-10-16T12:30:30;1.33;;;0.40;;
22644;SDS011;11489;50.834;6.752;2022-10-16T12:32:59;1.25;;;0.38;;
22644;SDS011;11489;50.834;6.752;2022-10-16T12:35:28;1.17;;;0.30;;
22644;SDS011;11489;50.834;6.752;2022-10-16T12:38:15;3.00;;;0.45;;
22644;SDS011;11489;50.834;6.752;2022-10-16T12:40:46;0.70;;;0.30;;
22644;SDS011;11489;50.834;6.752;2022-10-16T12:46:02;1.85;;;0.40;;
22644;SDS011;11489;50.834;6.752;2022-10-16T12:48:28;0.65;;;0.32;;
22644;SDS011;11489;50.834;6.752;2022-10-16T12:50:55;1.00;;;0.35;;
22644;SDS011;11489;50.834;6.752;2022-10-16T12:53:21;0.68;;;0.43;;
22644;SDS011;11489;50.834;6.752;2022-10-16T12:55:55;0.38;;;0.38;;
22644;SDS011;11489;50.834;6.752;2022-10-16T12:58:42;0.50;;;0.30;;
22644;SDS011;11489;50.834;6.752;2022-10-16T13:01:22;0.50;;;0.22;;
22644;SDS011;11489;50.834;6.752;2022-10-16T13:07:11;1.25;;;0.50;;
22644;SDS011;11489;50.834;6.752;2022-10-16T13:10:14;0.35;;;0.30;;
22644;SDS011;11489;50.834;6.752;2022-10-16T13:12:53;1.58;;;0.32;;
22644;SDS011;11489;50.834;6.752;2022-10-16T13:16:03;0.30;;;0.30;;
22644;SDS011;11489;50.834;6.752;2022-10-16T13:21:36;0.40;;;0.40;;
22644;SDS011;11489;50.834;6.752;2022-10-16T13:27:39;0.30;;;0.30;;
22644;SDS011;11489;50.834;6.752;2022-10-16T13:30:26;0.80;;;0.30;;
22644;SDS011;11489;50.834;6.752;2022-10-16T13:32:59;1.23;;;0.40;;
22644;SDS011;11489;50.834;6.752;2022-10-16T13:35:27;0.80;;;0.50;;
22644;SDS011;11489;50.834;6.752;2022-10-16T13:40:36;0.50;;;0.40;;
22644;SDS011;11489;50.834;6.752;2022-10-16T13:43:02;1.17;;;0.40;;
22644;SDS011;11489;50.834;6.752;2022-10-16T13:45:28;0.38;;;0.30;;
22644;SDS011;11489;50.834;6.752;2022-10-16T13:48:03;0.35;;;0.30;;
22644;SDS011;11489;50.834;6.752;2022-10-16T13:50:31;1.65;;;0.43;;
22644;SDS011;11489;50.834;6.752;2022-10-16T13:53:07;0.35;;;0.28;;
22644;SDS011;11489;50.834;6.752;2022-10-16T13:55:38;0.50;;;0.50;;
22644;SDS011;11489;50.834;6.752;2022-10-16T13:58:06;1.00;;;0.38;;
22644;SDS011;11489;50.834;6.752;2022-10-16T14:00:33;2.05;;;0.50;;
22644;SDS011;11489;50.834;6.752;2022-10-16T14:03:01;0.40;;;0.40;;
22644;SDS011;11489;50.834;6.752;2022-10-16T14:05:32;0.55;;;0.38;;
22644;SDS011;11489;50.834;6.752;2022-10-16T14:07:59;0.20;;;0.20;;
22644;SDS011;11489;50.834;6.752;2022-10-16T14:10:29;1.40;;;0.28;;
22644;SDS011;11489;50.834;6.752;2022-10-16T14:13:01;0.40;;;0.30;;
22644;SDS011;11489;50.834;6.752;2022-10-16T14:15:30;1.20;;;0.40;;
22644;SDS011;11489;50.834;6.752;2022-10-16T14:17:58;0.30;;;0.30;;
22644;SDS011;11489;50.834;6.752;2022-10-16T14:20:25;0.50;;;0.40;;
22644;SDS011;11489;50.834;6.752;2022-10-16T14:25:27;1.65;;;0.35;;
22644;SDS011;11489;50.834;6.752;2022-10-16T14:33:22;1.17;;;0.43;;
22644;SDS011;11489;50.834;6.752;2022-10-16T14:36:28;0.20;;;0.20;;
22644;SDS011;11489;50.834;6.752;2022-10-16T14:39:15;1.98;;;0.30;;
22644;SDS011;11489;50.834;6.752;2022-10-16T14:41:45;0.20;;;0.20;;
22644;SDS011;11489;50.834;6.752;2022-10-16T14:44:13;0.20;;;0.20;;
22644;SDS011;11489;50.834;6.752;2022-10-16T14:46:40;0.30;;;0.30;;
22644;SDS011;11489;50.834;6.752;2022-10-16T14:51:36;0.30;;;0.25;;
22644;SDS011;11489;50.834;6.752;2022-10-16T14:54:03;1.27;;;0.30;;
22644;SDS011;11489;50.834;6.752;2022-10-16T14:56:30;0.20;;;0.20;;
22644;SDS011;11489;50.834;6.752;2022-10-16T14:59:00;0.50;;;0.20;;
22644;SDS011;11489;50.834;6.752;2022-10-16T15:01:28;0.95;;;0.30;;
22644;SDS011;11489;50.834;6.752;2022-10-16T15:03:53;1.88;;;0.30;;
22644;SDS011;11489;50.834;6.752;2022-10-16T15:06:21;0.25;;;0.20;;
22644;SDS011;11489;50.834;6.752;2022-10-16T15:08:47;0.28;;;0.28;;
22644;SDS011;11489;50.834;6.752;2022-10-16T15:11:14;0.68;;;0.32;;
22644;SDS011;11489;50.834;6.752;2022-10-16T15:13:43;0.20;;;0.20;;
22644;SDS011;11489;50.834;6.752;2022-10-16T15:16:14;0.30;;;0.17;;
22644;SDS011;11489;50.834;6.752;2022-10-16T15:18:41;0.38;;;0.30;;
22644;SDS011;11489;50.834;6.752;2022-10-16T15:21:07;0.30;;;0.30;;
22644;SDS011;11489;50.834;6.752;2022-10-16T15:23:37;0.30;;;0.30;;
22644;SDS011;11489;50.834;6.752;2022-10-16T15:26:03;0.20;;;0.20;;
22644;SDS011;11489;50.834;6.752;2022-10-16T15:28:29;0.93;;;0.40;;
22644;SDS011;11489;50.834;6.752;2022-10-16T15:30:55;0.40;;;0.30;;
22644;SDS011;11489;50.834;6.752;2022-10-16T15:33:23;0.43;;;0.38;;
22644;SDS011;11489;50.834;6.752;2022-10-16T15:35:52;0.28;;;0.20;;
22644;SDS011;11489;50.834;6.752;2022-10-16T15:38:19;0.63;;;0.30;;
22644;SDS011;11489;50.834;6.752;2022-10-16T15:40:47;0.40;;;0.30;;
22644;SDS011;11489;50.834;6.752;2022-10-16T15:43:13;0.30;;;0.30;;
22644;SDS011;11489;50.834;6.752;2022-10-16T15:45:39;0.65;;;0.43;;
22644;SDS011;11489;50.834;6.752;2022-10-16T15:48:05;2.55;;;0.80;;
22644;SDS011;11489;50.834;6.752;2022-10-16T15:50:31;2.05;;;1.30;;
22644;SDS011;11489;50.834;6.752;2022-10-16T15:52:57;1.70;;;1.30;;
22644;SDS011;11489;50.834;6.752;2022-10-16T15:55:23;1.20;;;1.10;;
22644;SDS011;11489;50.834;6.752;2022-10-16T15:57:49;1.33;;;0.90;;
22644;SDS011;11489;50.834;6.752;2022-10-16T16:00:16;1.00;;;0.90;;
22644;SDS011;11489;50.834;6.752;2022-10-16T16:02:49;0.75;;;0.70;;
22644;SDS011;11489;50.834;6.752;2022-10-16T16:05:17;0.90;;;0.75;;
22644;SDS011;11489;50.834;6.752;2022-10-16T16:07:42;1.20;;;0.75;;
22644;SDS011;11489;50.834;6.752;2022-10-16T16:10:09;0.73;;;0.70;;
22644;SDS011;11489;50.834;6.752;2022-10-16T16:12:35;1.00;;;0.88;;
22644;SDS011;11489;50.834;6.752;2022-10-16T16:15:02;2.30;;;0.85;;
22644;SDS011;11489;50.834;6.752;2022-10-16T16:17:32;1.52;;;1.00;;
22644;SDS011;11489;50.834;6.752;2022-10-16T16:19:58;1.70;;;0.77;;
22644;SDS011;11489;50.834;6.752;2022-10-16T16:22:24;1.30;;;0.90;;
22644;SDS011;11489;50.834;6.752;2022-10-16T16:24:50;2.78;;;0.90;;
22644;SDS011;11489;50.834;6.752;2022-10-16T16:27:16;2.30;;;0.90;;
22644;SDS011;11489;50.834;6.752;2022-10-16T16:29:42;1.63;;;0.82;;
22644;SDS011;11489;50.834;6.752;2022-10-16T16:32:08;1.33;;;0.90;;
22644;SDS011;11489;50.834;6.752;2022-10-16T16:34:33;1.17;;;0.68;;
22644;SDS011;11489;50.834;6.752;2022-10-16T16:36:59;1.98;;;0.80;;
22644;SDS011;11489;50.834;6.752;2022-10-16T16:39:25;0.90;;;0.70;;
22644;SDS011;11489;50.834;6.752;2022-10-16T16:41:51;0.90;;;0.70;;
22644;SDS011;11489;50.834;6.752;2022-10-16T16:44:16;1.88;;;0.85;;
22644;SDS011;11489;50.834;6.752;2022-10-16T16:46:43;1.05;;;0.80;;
22644;SDS011;11489;50.834;6.752;2022-10-16T16:49:10;1.23;;;0.82;;
22644;SDS011;11489;50.834;6.752;2022-10-16T16:51:37;1.67;;;0.73;;